sensor_id;sensor_type;location;lat;lon;timestamp;temperature;humidity
10149;DHT22;5115;50.920;6.376;2023-07-13T00:01:25;19.60;99.90
10149;DHT22;5115;50.920;6.376;2023-07-13T00:03:50;19.60;99.90
10149;DHT22;5115;50.920;6.376;2023-07-13T00:06:16;19.50;99.90
10149;DHT22;5115;50.920;6.376;2023-07-13T00:08:41;19.50;99.90
10149;DHT22;5115;50.920;6.376;2023-07-13T00:11:07;19.50;99.90
10149;DHT22;5115;50.920;6.376;2023-07-13T00:13:35;19.40;99.90
10149;DHT22;5115;50.920;6.376;2023-07-13T00:16:03;19.40;99.90
10149;DHT22;5115;50.920;6.376;2023-07-13T00:18:30;19.30;99.90
10149;DHT22;5115;50.920;6.376;2023-07-13T00:20:56;19.20;99.90
10149;DHT22;5115;50.920;6.376;2023-07-13T00:23:31;19.20;99.90
10149;DHT22;5115;50.920;6.376;2023-07-13T00:25:59;19.20;99.90
10149;DHT22;5115;50.920;6.376;2023-07-13T00:28:25;19.20;99.90
10149;DHT22;5115;50.920;6.376;2023-07-13T00:30:50;19.10;99.90
10149;DHT22;5115;50.920;6.376;2023-07-13T00:33:16;19.10;99.90
10149;DHT22;5115;50.920;6.376;2023-07-13T00:35:41;19.00;99.90
10149;DHT22;5115;50.920;6.376;2023-07-13T00:38:09;19.00;99.90
10149;DHT22;5115;50.920;6.376;2023-07-13T00:40:35;19.00;99.90
10149;DHT22;5115;50.920;6.376;2023-07-13T00:43:00;19.20;99.90
10149;DHT22;5115;50.920;6.376;2023-07-13T00:47:51;18.90;99.90
10149;DHT22;5115;50.920;6.376;2023-07-13T00:50:18;18.90;99.90
10149;DHT22;5115;50.920;6.376;2023-07-13T00:52:49;18.90;99.90
10149;DHT22;5115;50.920;6.376;2023-07-13T00:55:15;19.00;99.90
10149;DHT22;5115;50.920;6.376;2023-07-13T00:57:42;18.90;99.90
10149;DHT22;5115;50.920;6.376;2023-07-13T01:00:09;18.90;99.90
10149;DHT22;5115;50.920;6.376;2023-07-13T01:02:37;19.00;99.90
10149;DHT22;5115;50.920;6.376;2023-07-13T01:05:15;18.90;99.90
10149;DHT22;5115;50.920;6.376;2023-07-13T01:07:42;18.80;99.90
10149;DHT22;5115;50.920;6.376;2023-07-13T01:10:10;18.80;99.90
10149;DHT22;5115;50.920;6.376;2023-07-13T01:12:36;18.80;99.90
10149;DHT22;5115;50.920;6.376;2023-07-13T01:15:03;18.80;99.90
10149;DHT22;5115;50.920;6.376;2023-07-13T01:17:30;18.70;99.90
10149;DHT22;5115;50.920;6.376;2023-07-13T01:19:56;18.70;99.90
10149;DHT22;5115;50.920;6.376;2023-07-13T01:22:22;18.60;99.90
10149;DHT22;5115;50.920;6.376;2023-07-13T01:24:53;18.50;99.90
10149;DHT22;5115;50.920;6.376;2023-07-13T01:27:23;18.40;99.90
10149;DHT22;5115;50.920;6.376;2023-07-13T01:29:53;18.40;99.90
10149;DHT22;5115;50.920;6.376;2023-07-13T01:32:27;18.40;99.90
10149;DHT22;5115;50.920;6.376;2023-07-13T01:34:53;18.40;99.90
10149;DHT22;5115;50.920;6.376;2023-07-13T01:37:20;18.60;99.90
10149;DHT22;5115;50.920;6.376;2023-07-13T01:39:46;18.40;99.90
10149;DHT22;5115;50.920;6.376;2023-07-13T01:42:12;18.30;99.90
10149;DHT22;5115;50.920;6.376;2023-07-13T01:44:38;18.40;99.90
10149;DHT22;5115;50.920;6.376;2023-07-13T01:47:04;18.30;99.90
10149;DHT22;5115;50.920;6.376;2023-07-13T01:49:29;18.30;99.90
10149;DHT22;5115;50.920;6.376;2023-07-13T01:51:55;18.30;99.90
10149;DHT22;5115;50.920;6.376;2023-07-13T01:54:20;18.30;99.90
10149;DHT22;5115;50.920;6.376;2023-07-13T01:56:46;18.30;99.90
10149;DHT22;5115;50.920;6.376;2023-07-13T01:59:11;18.20;99.90
10149;DHT22;5115;50.920;6.376;2023-07-13T02:01:37;18.20;99.90
10149;DHT22;5115;50.920;6.376;2023-07-13T02:04:03;18.20;99.90
10149;DHT22;5115;50.920;6.376;2023-07-13T02:06:28;18.30;99.90
10149;DHT22;5115;50.920;6.376;2023-07-13T02:08:54;18.30;99.90
10149;DHT22;5115;50.920;6.376;2023-07-13T02:11:20;18.50;99.90
10149;DHT22;5115;50.920;6.376;2023-07-13T02:13:45;18.30;99.90
10149;DHT22;5115;50.920;6.376;2023-07-13T02:16:11;18.40;99.90
10149;DHT22;5115;50.920;6.376;2023-07-13T02:18:37;18.30;99.90
10149;DHT22;5115;50.920;6.376;2023-07-13T02:21:03;18.30;99.90
10149;DHT22;5115;50.920;6.376;2023-07-13T02:23:28;18.20;99.90
10149;DHT22;5115;50.920;6.376;2023-07-13T02:25:58;18.20;99.90
10149;DHT22;5115;50.920;6.376;2023-07-13T02:28:24;18.20;99.90
10149;DHT22;5115;50.920;6.376;2023-07-13T02:30:50;18.10;99.90
10149;DHT22;5115;50.920;6.376;2023-07-13T02:33:15;18.00;99.90
10149;DHT22;5115;50.920;6.376;2023-07-13T02:35:41;18.00;99.90
10149;DHT22;5115;50.920;6.376;2023-07-13T02:38:07;17.90;99.90
10149;DHT22;5115;50.920;6.376;2023-07-13T02:40:34;17.90;99.90
10149;DHT22;5115;50.920;6.376;2023-07-13T02:43:01;17.80;99.90
10149;DHT22;5115;50.920;6.376;2023-07-13T02:45:27;17.80;99.90
10149;DHT22;5115;50.920;6.376;2023-07-13T02:47:52;18.10;99.90
10149;DHT22;5115;50.920;6.376;2023-07-13T02:50:18;17.80;99.90
10149;DHT22;5115;50.920;6.376;2023-07-13T02:52:43;17.90;99.90
10149;DHT22;5115;50.920;6.376;2023-07-13T02:55:09;17.90;99.90
10149;DHT22;5115;50.920;6.376;2023-07-13T02:57:35;17.90;99.90
10149;DHT22;5115;50.920;6.376;2023-07-13T03:00:00;18.30;99.90
10149;DHT22;5115;50.920;6.376;2023-07-13T03:02:26;17.80;99.90
10149;DHT22;5115;50.920;6.376;2023-07-13T03:04:54;17.90;99.90
10149;DHT22;5115;50.920;6.376;2023-07-13T03:07:20;17.80;99.90
10149;DHT22;5115;50.920;6.376;2023-07-13T03:09:45;17.70;99.90
10149;DHT22;5115;50.920;6.376;2023-07-13T03:12:11;17.80;99.90
10149;DHT22;5115;50.920;6.376;2023-07-13T03:14:36;17.80;99.90
10149;DHT22;5115;50.920;6.376;2023-07-13T03:17:02;17.80;99.90
10149;DHT22;5115;50.920;6.376;2023-07-13T03:19:31;17.80;99.90
10149;DHT22;5115;50.920;6.376;2023-07-13T03:21:56;17.80;99.90
10149;DHT22;5115;50.920;6.376;2023-07-13T03:24:22;17.90;99.90
10149;DHT22;5115;50.920;6.376;2023-07-13T03:26:51;17.80;99.90
10149;DHT22;5115;50.920;6.376;2023-07-13T03:29:16;17.80;99.90
10149;DHT22;5115;50.920;6.376;2023-07-13T03:31:42;17.80;99.90
10149;DHT22;5115;50.920;6.376;2023-07-13T03:34:07;17.80;99.90
10149;DHT22;5115;50.920;6.376;2023-07-13T03:36:33;17.80;99.90
10149;DHT22;5115;50.920;6.376;2023-07-13T03:39:00;17.80;99.90
10149;DHT22;5115;50.920;6.376;2023-07-13T03:41:26;17.80;99.90
10149;DHT22;5115;50.920;6.376;2023-07-13T03:43:52;17.80;99.90
10149;DHT22;5115;50.920;6.376;2023-07-13T03:46:18;17.80;99.90
10149;DHT22;5115;50.920;6.376;2023-07-13T03:48:46;17.80;99.90
10149;DHT22;5115;50.920;6.376;2023-07-13T03:51:14;17.80;99.90
10149;DHT22;5115;50.920;6.376;2023-07-13T03:53:44;17.80;99.90
10149;DHT22;5115;50.920;6.376;2023-07-13T03:56:10;18.50;99.90
10149;DHT22;5115;50.920;6.376;2023-07-13T03:58:38;17.90;99.90
10149;DHT22;5115;50.920;6.376;2023-07-13T04:01:07;17.90;99.90
10149;DHT22;5115;50.920;6.376;2023-07-13T04:03:34;18.00;99.90
10149;DHT22;5115;50.920;6.376;2023-07-13T04:06:00;18.00;99.90
10149;DHT22;5115;50.920;6.376;2023-07-13T04:08:27;18.00;99.90
10149;DHT22;5115;50.920;6.376;2023-07-13T04:10:53;17.90;99.90
10149;DHT22;5115;50.920;6.376;2023-07-13T04:13:19;17.90;99.90
10149;DHT22;5115;50.920;6.376;2023-07-13T04:15:44;17.90;99.90
10149;DHT22;5115;50.920;6.376;2023-07-13T04:18:10;17.90;99.90
10149;DHT22;5115;50.920;6.376;2023-07-13T04:20:35;18.00;99.90
10149;DHT22;5115;50.920;6.376;2023-07-13T04:23:01;18.10;99.90
10149;DHT22;5115;50.920;6.376;2023-07-13T04:25:27;18.00;99.90
10149;DHT22;5115;50.920;6.376;2023-07-13T04:27:53;18.00;99.90
10149;DHT22;5115;50.920;6.376;2023-07-13T04:30:19;18.00;99.90
10149;DHT22;5115;50.920;6.376;2023-07-13T04:32:45;18.10;99.90
10149;DHT22;5115;50.920;6.376;2023-07-13T04:35:10;18.30;99.90
10149;DHT22;5115;50.920;6.376;2023-07-13T04:37:36;18.20;99.90
10149;DHT22;5115;50.920;6.376;2023-07-13T04:40:02;18.40;99.90
10149;DHT22;5115;50.920;6.376;2023-07-13T04:42:29;18.50;99.90
10149;DHT22;5115;50.920;6.376;2023-07-13T04:44:55;18.60;99.90
10149;DHT22;5115;50.920;6.376;2023-07-13T04:47:21;18.60;99.90
10149;DHT22;5115;50.920;6.376;2023-07-13T04:49:46;18.70;99.90
10149;DHT22;5115;50.920;6.376;2023-07-13T04:52:12;18.80;99.90
10149;DHT22;5115;50.920;6.376;2023-07-13T04:54:38;18.90;99.90
10149;DHT22;5115;50.920;6.376;2023-07-13T04:57:04;19.00;99.90
10149;DHT22;5115;50.920;6.376;2023-07-13T04:59:32;19.10;99.90
10149;DHT22;5115;50.920;6.376;2023-07-13T05:01:58;19.20;99.90
10149;DHT22;5115;50.920;6.376;2023-07-13T05:04:23;19.30;99.90
10149;DHT22;5115;50.920;6.376;2023-07-13T05:06:49;19.60;99.90
10149;DHT22;5115;50.920;6.376;2023-07-13T05:09:15;19.50;99.90
10149;DHT22;5115;50.920;6.376;2023-07-13T05:11:40;19.50;99.90
10149;DHT22;5115;50.920;6.376;2023-07-13T05:14:06;19.10;99.90
10149;DHT22;5115;50.920;6.376;2023-07-13T05:16:31;19.70;99.90
10149;DHT22;5115;50.920;6.376;2023-07-13T05:18:57;19.80;99.90
10149;DHT22;5115;50.920;6.376;2023-07-13T05:21:23;19.90;99.90
10149;DHT22;5115;50.920;6.376;2023-07-13T05:23:49;20.10;99.90
10149;DHT22;5115;50.920;6.376;2023-07-13T05:26:15;20.30;99.90
10149;DHT22;5115;50.920;6.376;2023-07-13T05:28:40;20.60;99.90
10149;DHT22;5115;50.920;6.376;2023-07-13T05:31:08;20.50;99.90
10149;DHT22;5115;50.920;6.376;2023-07-13T05:33:34;20.30;99.90
10149;DHT22;5115;50.920;6.376;2023-07-13T05:36:00;20.20;99.90
10149;DHT22;5115;50.920;6.376;2023-07-13T05:38:28;20.30;99.90
10149;DHT22;5115;50.920;6.376;2023-07-13T05:40:55;20.50;99.90
10149;DHT22;5115;50.920;6.376;2023-07-13T05:43:21;20.50;99.90
10149;DHT22;5115;50.920;6.376;2023-07-13T05:45:48;20.50;99.90
10149;DHT22;5115;50.920;6.376;2023-07-13T05:48:14;20.60;99.90
10149;DHT22;5115;50.920;6.376;2023-07-13T05:50:40;20.50;99.90
10149;DHT22;5115;50.920;6.376;2023-07-13T05:53:06;20.50;99.90
10149;DHT22;5115;50.920;6.376;2023-07-13T05:55:32;20.80;99.90
10149;DHT22;5115;50.920;6.376;2023-07-13T05:57:59;20.70;99.90
10149;DHT22;5115;50.920;6.376;2023-07-13T06:00:25;20.90;99.90
10149;DHT22;5115;50.920;6.376;2023-07-13T06:02:51;20.90;99.90
10149;DHT22;5115;50.920;6.376;2023-07-13T06:05:16;21.00;99.90
10149;DHT22;5115;50.920;6.376;2023-07-13T06:07:42;20.90;99.90
10149;DHT22;5115;50.920;6.376;2023-07-13T06:10:08;21.10;99.90
10149;DHT22;5115;50.920;6.376;2023-07-13T06:12:33;21.20;99.90
10149;DHT22;5115;50.920;6.376;2023-07-13T06:14:59;21.30;99.90
10149;DHT22;5115;50.920;6.376;2023-07-13T06:17:25;21.50;99.90
10149;DHT22;5115;50.920;6.376;2023-07-13T06:19:50;21.70;99.90
10149;DHT22;5115;50.920;6.376;2023-07-13T06:22:16;21.80;99.90
10149;DHT22;5115;50.920;6.376;2023-07-13T06:24:41;22.10;99.90
10149;DHT22;5115;50.920;6.376;2023-07-13T06:27:07;22.30;99.90
10149;DHT22;5115;50.920;6.376;2023-07-13T06:29:32;22.30;99.90
10149;DHT22;5115;50.920;6.376;2023-07-13T06:31:58;22.50;99.90
10149;DHT22;5115;50.920;6.376;2023-07-13T06:34:24;22.90;99.90
10149;DHT22;5115;50.920;6.376;2023-07-13T06:36:49;23.00;99.90
10149;DHT22;5115;50.920;6.376;2023-07-13T06:39:15;23.20;99.90
10149;DHT22;5115;50.920;6.376;2023-07-13T06:41:40;23.20;99.90
10149;DHT22;5115;50.920;6.376;2023-07-13T06:44:06;23.40;99.90
10149;DHT22;5115;50.920;6.376;2023-07-13T06:46:31;23.50;99.90
10149;DHT22;5115;50.920;6.376;2023-07-13T06:48:57;23.40;99.90
10149;DHT22;5115;50.920;6.376;2023-07-13T06:51:23;23.30;99.90
10149;DHT22;5115;50.920;6.376;2023-07-13T06:53:48;22.90;99.90
10149;DHT22;5115;50.920;6.376;2023-07-13T06:56:15;22.80;99.90
10149;DHT22;5115;50.920;6.376;2023-07-13T06:58:41;22.40;99.90
10149;DHT22;5115;50.920;6.376;2023-07-13T07:01:06;22.60;99.90
10149;DHT22;5115;50.920;6.376;2023-07-13T07:03:32;22.50;99.90
10149;DHT22;5115;50.920;6.376;2023-07-13T07:06:15;22.20;99.90
10149;DHT22;5115;50.920;6.376;2023-07-13T07:08:41;21.90;99.90
10149;DHT22;5115;50.920;6.376;2023-07-13T07:11:13;21.90;99.90
10149;DHT22;5115;50.920;6.376;2023-07-13T07:13:39;21.60;99.90
10149;DHT22;5115;50.920;6.376;2023-07-13T07:16:05;21.50;99.90
10149;DHT22;5115;50.920;6.376;2023-07-13T07:18:31;21.40;99.90
10149;DHT22;5115;50.920;6.376;2023-07-13T07:20:56;21.20;99.90
10149;DHT22;5115;50.920;6.376;2023-07-13T07:23:22;21.20;99.90
10149;DHT22;5115;50.920;6.376;2023-07-13T07:25:47;21.10;99.90
10149;DHT22;5115;50.920;6.376;2023-07-13T07:28:15;21.30;99.90
10149;DHT22;5115;50.920;6.376;2023-07-13T07:30:43;21.40;99.90
10149;DHT22;5115;50.920;6.376;2023-07-13T07:33:09;21.30;99.90
10149;DHT22;5115;50.920;6.376;2023-07-13T07:35:35;21.40;99.90
10149;DHT22;5115;50.920;6.376;2023-07-13T07:38:00;21.50;99.90
10149;DHT22;5115;50.920;6.376;2023-07-13T07:40:26;21.50;99.90
10149;DHT22;5115;50.920;6.376;2023-07-13T07:42:52;21.70;99.90
10149;DHT22;5115;50.920;6.376;2023-07-13T07:45:18;21.80;99.90
10149;DHT22;5115;50.920;6.376;2023-07-13T07:47:44;22.00;99.90
10149;DHT22;5115;50.920;6.376;2023-07-13T07:50:10;22.20;99.90
10149;DHT22;5115;50.920;6.376;2023-07-13T07:52:36;22.20;99.90
10149;DHT22;5115;50.920;6.376;2023-07-13T07:55:03;22.20;99.90
10149;DHT22;5115;50.920;6.376;2023-07-13T07:57:29;22.40;99.90
10149;DHT22;5115;50.920;6.376;2023-07-13T07:59:55;22.70;99.90
10149;DHT22;5115;50.920;6.376;2023-07-13T08:02:20;22.90;99.90
10149;DHT22;5115;50.920;6.376;2023-07-13T08:04:46;23.10;99.90
10149;DHT22;5115;50.920;6.376;2023-07-13T08:07:11;23.10;99.90
10149;DHT22;5115;50.920;6.376;2023-07-13T08:09:37;22.90;99.90
10149;DHT22;5115;50.920;6.376;2023-07-13T08:12:03;22.90;99.90
10149;DHT22;5115;50.920;6.376;2023-07-13T08:14:28;22.80;99.90
10149;DHT22;5115;50.920;6.376;2023-07-13T08:16:54;22.80;99.90
10149;DHT22;5115;50.920;6.376;2023-07-13T08:19:20;22.70;99.90
10149;DHT22;5115;50.920;6.376;2023-07-13T08:21:46;22.70;99.90
10149;DHT22;5115;50.920;6.376;2023-07-13T08:24:13;22.80;99.90
10149;DHT22;5115;50.920;6.376;2023-07-13T08:26:39;22.70;99.90
10149;DHT22;5115;50.920;6.376;2023-07-13T08:29:04;22.70;99.90
10149;DHT22;5115;50.920;6.376;2023-07-13T08:31:30;23.10;99.90
10149;DHT22;5115;50.920;6.376;2023-07-13T08:33:56;23.20;99.90
10149;DHT22;5115;50.920;6.376;2023-07-13T08:36:21;23.60;99.90
10149;DHT22;5115;50.920;6.376;2023-07-13T08:38:47;23.80;99.90
10149;DHT22;5115;50.920;6.376;2023-07-13T08:41:15;23.80;99.90
10149;DHT22;5115;50.920;6.376;2023-07-13T08:43:43;23.70;99.90
10149;DHT22;5115;50.920;6.376;2023-07-13T08:48:57;23.90;99.90
10149;DHT22;5115;50.920;6.376;2023-07-13T08:51:35;24.00;99.90
10149;DHT22;5115;50.920;6.376;2023-07-13T08:54:07;24.00;99.90
10149;DHT22;5115;50.920;6.376;2023-07-13T08:56:35;24.00;99.90
10149;DHT22;5115;50.920;6.376;2023-07-13T08:59:11;24.10;99.90
10149;DHT22;5115;50.920;6.376;2023-07-13T09:04:19;24.30;99.90
10149;DHT22;5115;50.920;6.376;2023-07-13T09:09:32;25.00;99.90
10149;DHT22;5115;50.920;6.376;2023-07-13T09:14:48;25.40;99.90
10149;DHT22;5115;50.920;6.376;2023-07-13T09:17:46;25.50;99.90
10149;DHT22;5115;50.920;6.376;2023-07-13T09:20:30;25.80;99.90
10149;DHT22;5115;50.920;6.376;2023-07-13T09:23:00;25.60;99.90
10149;DHT22;5115;50.920;6.376;2023-07-13T09:25:35;25.50;99.90
10149;DHT22;5115;50.920;6.376;2023-07-13T09:28:11;25.60;99.90
10149;DHT22;5115;50.920;6.376;2023-07-13T09:33:19;25.10;99.90
10149;DHT22;5115;50.920;6.376;2023-07-13T09:35:44;24.80;99.90
10149;DHT22;5115;50.920;6.376;2023-07-13T09:38:14;24.80;99.90
10149;DHT22;5115;50.920;6.376;2023-07-13T09:40:59;25.00;99.90
10149;DHT22;5115;50.920;6.376;2023-07-13T09:43:25;25.10;99.90
10149;DHT22;5115;50.920;6.376;2023-07-13T09:45:51;25.10;99.90
10149;DHT22;5115;50.920;6.376;2023-07-13T09:48:17;25.10;99.90
10149;DHT22;5115;50.920;6.376;2023-07-13T09:50:44;25.00;99.90
10149;DHT22;5115;50.920;6.376;2023-07-13T09:53:17;24.90;99.90
10149;DHT22;5115;50.920;6.376;2023-07-13T09:55:46;25.10;99.90
10149;DHT22;5115;50.920;6.376;2023-07-13T09:58:14;25.30;99.90
10149;DHT22;5115;50.920;6.376;2023-07-13T10:00:41;25.40;99.90
10149;DHT22;5115;50.920;6.376;2023-07-13T10:03:18;25.40;99.90
10149;DHT22;5115;50.920;6.376;2023-07-13T10:05:47;25.40;99.90
10149;DHT22;5115;50.920;6.376;2023-07-13T10:08:18;25.60;99.90
10149;DHT22;5115;50.920;6.376;2023-07-13T10:10:44;25.60;99.90
10149;DHT22;5115;50.920;6.376;2023-07-13T10:13:35;25.20;99.90
10149;DHT22;5115;50.920;6.376;2023-07-13T10:16:03;25.30;99.90
10149;DHT22;5115;50.920;6.376;2023-07-13T10:21:14;25.50;99.90
10149;DHT22;5115;50.920;6.376;2023-07-13T10:23:41;25.60;99.90
10149;DHT22;5115;50.920;6.376;2023-07-13T10:26:15;25.90;99.90
10149;DHT22;5115;50.920;6.376;2023-07-13T10:28:44;26.10;99.90
10149;DHT22;5115;50.920;6.376;2023-07-13T10:31:12;26.30;99.90
10149;DHT22;5115;50.920;6.376;2023-07-13T10:33:38;26.60;99.90
10149;DHT22;5115;50.920;6.376;2023-07-13T10:36:12;26.70;99.90
10149;DHT22;5115;50.920;6.376;2023-07-13T10:38:39;26.60;99.90
10149;DHT22;5115;50.920;6.376;2023-07-13T10:41:10;26.70;99.90
10149;DHT22;5115;50.920;6.376;2023-07-13T10:43:41;26.20;99.90
10149;DHT22;5115;50.920;6.376;2023-07-13T10:46:11;26.10;99.90
10149;DHT22;5115;50.920;6.376;2023-07-13T10:48:39;25.80;99.90
10149;DHT22;5115;50.920;6.376;2023-07-13T10:51:06;25.60;99.90
10149;DHT22;5115;50.920;6.376;2023-07-13T10:53:35;25.30;99.90
10149;DHT22;5115;50.920;6.376;2023-07-13T10:56:16;25.20;99.90
10149;DHT22;5115;50.920;6.376;2023-07-13T10:58:45;25.10;99.90
10149;DHT22;5115;50.920;6.376;2023-07-13T11:01:14;25.10;99.90
10149;DHT22;5115;50.920;6.376;2023-07-13T11:09:03;25.30;99.90
10149;DHT22;5115;50.920;6.376;2023-07-13T11:11:41;25.30;99.90
10149;DHT22;5115;50.920;6.376;2023-07-13T11:14:27;25.40;99.90
10149;DHT22;5115;50.920;6.376;2023-07-13T11:16:53;25.40;99.90
10149;DHT22;5115;50.920;6.376;2023-07-13T11:27:36;25.90;99.90
10149;DHT22;5115;50.920;6.376;2023-07-13T11:33:20;26.00;99.60
10149;DHT22;5115;50.920;6.376;2023-07-13T11:36:02;25.90;99.90
10149;DHT22;5115;50.920;6.376;2023-07-13T11:38:58;25.90;99.20
10149;DHT22;5115;50.920;6.376;2023-07-13T11:41:37;26.00;99.90
10149;DHT22;5115;50.920;6.376;2023-07-13T11:44:23;26.00;99.50
10149;DHT22;5115;50.920;6.376;2023-07-13T11:46:55;26.00;99.90
10149;DHT22;5115;50.920;6.376;2023-07-13T11:49:23;26.20;99.90
10149;DHT22;5115;50.920;6.376;2023-07-13T11:51:49;25.90;99.70
10149;DHT22;5115;50.920;6.376;2023-07-13T11:54:29;25.60;99.90
10149;DHT22;5115;50.920;6.376;2023-07-13T11:56:58;25.30;99.90
10149;DHT22;5115;50.920;6.376;2023-07-13T11:59:27;25.40;99.90
10149;DHT22;5115;50.920;6.376;2023-07-13T12:01:54;25.60;99.70
10149;DHT22;5115;50.920;6.376;2023-07-13T12:04:32;25.60;99.40
10149;DHT22;5115;50.920;6.376;2023-07-13T12:07:07;25.90;99.80
10149;DHT22;5115;50.920;6.376;2023-07-13T12:09:34;26.10;99.20
10149;DHT22;5115;50.920;6.376;2023-07-13T12:12:02;26.10;99.00
10149;DHT22;5115;50.920;6.376;2023-07-13T12:14:27;26.30;99.40
10149;DHT22;5115;50.920;6.376;2023-07-13T12:16:54;26.40;99.40
10149;DHT22;5115;50.920;6.376;2023-07-13T12:19:24;26.50;98.20
10149;DHT22;5115;50.920;6.376;2023-07-13T12:21:56;26.40;98.20
10149;DHT22;5115;50.920;6.376;2023-07-13T12:24:23;26.30;99.10
10149;DHT22;5115;50.920;6.376;2023-07-13T12:26:58;26.20;98.30
10149;DHT22;5115;50.920;6.376;2023-07-13T12:29:24;26.40;97.80
10149;DHT22;5115;50.920;6.376;2023-07-13T12:31:50;26.40;97.00
10149;DHT22;5115;50.920;6.376;2023-07-13T12:34:20;26.30;97.30
10149;DHT22;5115;50.920;6.376;2023-07-13T12:36:49;26.40;97.60
10149;DHT22;5115;50.920;6.376;2023-07-13T12:39:24;26.30;98.20
10149;DHT22;5115;50.920;6.376;2023-07-13T12:41:52;26.50;98.20
10149;DHT22;5115;50.920;6.376;2023-07-13T12:44:25;26.40;97.70
10149;DHT22;5115;50.920;6.376;2023-07-13T12:46:57;26.30;98.10
10149;DHT22;5115;50.920;6.376;2023-07-13T12:49:26;26.40;97.30
10149;DHT22;5115;50.920;6.376;2023-07-13T12:51:57;26.30;97.00
10149;DHT22;5115;50.920;6.376;2023-07-13T12:54:24;26.50;97.30
10149;DHT22;5115;50.920;6.376;2023-07-13T12:56:51;26.30;97.10
10149;DHT22;5115;50.920;6.376;2023-07-13T12:59:20;26.20;97.70
10149;DHT22;5115;50.920;6.376;2023-07-13T13:01:47;26.20;97.90
10149;DHT22;5115;50.920;6.376;2023-07-13T13:04:14;26.30;97.80
10149;DHT22;5115;50.920;6.376;2023-07-13T13:06:40;26.30;97.80
10149;DHT22;5115;50.920;6.376;2023-07-13T13:09:12;26.30;97.00
10149;DHT22;5115;50.920;6.376;2023-07-13T13:11:38;26.20;97.00
10149;DHT22;5115;50.920;6.376;2023-07-13T13:14:05;26.50;97.30
10149;DHT22;5115;50.920;6.376;2023-07-13T13:16:50;26.40;96.90
10149;DHT22;5115;50.920;6.376;2023-07-13T13:19:25;26.50;96.60
10149;DHT22;5115;50.920;6.376;2023-07-13T13:21:52;26.70;96.80
10149;DHT22;5115;50.920;6.376;2023-07-13T13:24:21;26.40;97.00
10149;DHT22;5115;50.920;6.376;2023-07-13T13:26:47;26.20;97.50
10149;DHT22;5115;50.920;6.376;2023-07-13T13:29:18;26.10;97.10
10149;DHT22;5115;50.920;6.376;2023-07-13T13:31:45;26.00;97.40
10149;DHT22;5115;50.920;6.376;2023-07-13T13:34:13;26.00;97.70
10149;DHT22;5115;50.920;6.376;2023-07-13T13:36:41;26.00;97.60
10149;DHT22;5115;50.920;6.376;2023-07-13T13:39:22;26.10;97.10
10149;DHT22;5115;50.920;6.376;2023-07-13T13:41:50;26.20;96.50
10149;DHT22;5115;50.920;6.376;2023-07-13T13:44:16;26.00;95.90
10149;DHT22;5115;50.920;6.376;2023-07-13T13:46:47;25.90;96.40
10149;DHT22;5115;50.920;6.376;2023-07-13T13:49:16;25.90;97.40
10149;DHT22;5115;50.920;6.376;2023-07-13T13:51:41;25.80;97.30
10149;DHT22;5115;50.920;6.376;2023-07-13T13:54:14;25.80;97.60
10149;DHT22;5115;50.920;6.376;2023-07-13T13:56:42;26.10;97.90
10149;DHT22;5115;50.920;6.376;2023-07-13T13:59:08;26.10;97.30
10149;DHT22;5115;50.920;6.376;2023-07-13T14:01:35;26.10;97.30
10149;DHT22;5115;50.920;6.376;2023-07-13T14:04:01;26.10;96.10
10149;DHT22;5115;50.920;6.376;2023-07-13T14:06:26;26.10;97.30
10149;DHT22;5115;50.920;6.376;2023-07-13T14:08:53;26.20;96.70
10149;DHT22;5115;50.920;6.376;2023-07-13T14:11:21;26.10;96.60
10149;DHT22;5115;50.920;6.376;2023-07-13T14:13:56;26.10;96.80
10149;DHT22;5115;50.920;6.376;2023-07-13T14:16:27;26.10;96.20
10149;DHT22;5115;50.920;6.376;2023-07-13T14:18:53;26.10;96.60
10149;DHT22;5115;50.920;6.376;2023-07-13T14:21:20;26.10;96.50
10149;DHT22;5115;50.920;6.376;2023-07-13T14:23:47;26.00;97.10
10149;DHT22;5115;50.920;6.376;2023-07-13T14:26:15;26.10;96.00
10149;DHT22;5115;50.920;6.376;2023-07-13T14:28:45;26.10;96.90
10149;DHT22;5115;50.920;6.376;2023-07-13T14:31:12;26.20;96.20
10149;DHT22;5115;50.920;6.376;2023-07-13T14:33:38;26.10;96.00
10149;DHT22;5115;50.920;6.376;2023-07-13T14:36:32;26.10;95.70
10149;DHT22;5115;50.920;6.376;2023-07-13T14:39:00;26.30;95.80
10149;DHT22;5115;50.920;6.376;2023-07-13T14:41:27;26.30;95.90
10149;DHT22;5115;50.920;6.376;2023-07-13T14:43:53;26.20;95.90
10149;DHT22;5115;50.920;6.376;2023-07-13T14:46:31;26.20;96.10
10149;DHT22;5115;50.920;6.376;2023-07-13T14:49:06;26.10;96.40
10149;DHT22;5115;50.920;6.376;2023-07-13T14:51:34;26.10;96.40
10149;DHT22;5115;50.920;6.376;2023-07-13T14:54:05;26.10;96.50
10149;DHT22;5115;50.920;6.376;2023-07-13T14:56:31;26.10;96.10
10149;DHT22;5115;50.920;6.376;2023-07-13T14:58:56;25.80;96.00
10149;DHT22;5115;50.920;6.376;2023-07-13T15:01:22;25.90;96.00
10149;DHT22;5115;50.920;6.376;2023-07-13T15:03:50;25.60;96.10
10149;DHT22;5115;50.920;6.376;2023-07-13T15:06:17;25.60;96.10
10149;DHT22;5115;50.920;6.376;2023-07-13T15:08:45;25.60;96.30
10149;DHT22;5115;50.920;6.376;2023-07-13T15:11:11;25.40;97.90
10149;DHT22;5115;50.920;6.376;2023-07-13T15:13:38;25.50;99.20
10149;DHT22;5115;50.920;6.376;2023-07-13T15:16:05;25.60;99.60
10149;DHT22;5115;50.920;6.376;2023-07-13T15:18:36;25.60;99.90
10149;DHT22;5115;50.920;6.376;2023-07-13T15:21:09;25.30;99.90
10149;DHT22;5115;50.920;6.376;2023-07-13T15:23:35;25.30;99.90
10149;DHT22;5115;50.920;6.376;2023-07-13T15:26:01;25.30;99.90
10149;DHT22;5115;50.920;6.376;2023-07-13T15:28:28;25.30;99.90
10149;DHT22;5115;50.920;6.376;2023-07-13T15:30:54;25.30;99.90
10149;DHT22;5115;50.920;6.376;2023-07-13T15:33:26;25.20;99.90
10149;DHT22;5115;50.920;6.376;2023-07-13T15:35:53;24.70;99.90
10149;DHT22;5115;50.920;6.376;2023-07-13T15:38:22;24.50;99.90
10149;DHT22;5115;50.920;6.376;2023-07-13T15:40:49;24.60;99.90
10149;DHT22;5115;50.920;6.376;2023-07-13T15:43:16;24.50;99.90
10149;DHT22;5115;50.920;6.376;2023-07-13T15:45:42;24.30;99.90
10149;DHT22;5115;50.920;6.376;2023-07-13T15:48:17;24.10;99.90
10149;DHT22;5115;50.920;6.376;2023-07-13T15:50:45;24.10;99.90
10149;DHT22;5115;50.920;6.376;2023-07-13T15:53:13;24.10;99.90
10149;DHT22;5115;50.920;6.376;2023-07-13T15:55:39;24.10;99.90
10149;DHT22;5115;50.920;6.376;2023-07-13T15:58:10;24.10;99.90
10149;DHT22;5115;50.920;6.376;2023-07-13T16:00:36;24.10;99.90
10149;DHT22;5115;50.920;6.376;2023-07-13T16:03:02;23.80;99.90
10149;DHT22;5115;50.920;6.376;2023-07-13T16:05:28;23.60;99.90
10149;DHT22;5115;50.920;6.376;2023-07-13T16:07:54;23.60;99.90
10149;DHT22;5115;50.920;6.376;2023-07-13T16:10:24;23.60;99.90
10149;DHT22;5115;50.920;6.376;2023-07-13T16:12:52;23.70;99.90
10149;DHT22;5115;50.920;6.376;2023-07-13T16:15:20;23.60;99.90
10149;DHT22;5115;50.920;6.376;2023-07-13T16:17:47;23.60;99.90
10149;DHT22;5115;50.920;6.376;2023-07-13T16:20:14;23.60;99.90
10149;DHT22;5115;50.920;6.376;2023-07-13T16:22:42;23.70;99.90
10149;DHT22;5115;50.920;6.376;2023-07-13T16:25:14;23.90;99.90